createdAt,value
2023-04-30T00:00:46.740Z,503.00
2023-04-30T00:01:45.721Z,509.00
2023-04-30T00:02:46.909Z,503.00
2023-04-30T00:03:46.821Z,513.00
2023-04-30T00:04:46.710Z,512.00
2023-04-30T00:05:45.723Z,506.00
2023-04-30T00:06:45.783Z,505.00
2023-04-30T00:07:46.736Z,505.00
2023-04-30T00:08:46.747Z,504.00
2023-04-30T00:09:46.731Z,510.00
2023-04-30T00:10:46.745Z,506.00
2023-04-30T00:11:46.755Z,508.00
2023-04-30T00:12:46.834Z,509.00
2023-04-30T00:13:46.777Z,507.00
2023-04-30T00:14:46.762Z,505.00
2023-04-30T00:15:45.786Z,508.00
2023-04-30T00:16:45.805Z,509.00
2023-04-30T00:17:46.911Z,502.00
2023-04-30T00:18:46.812Z,505.00
2023-04-30T00:19:46.814Z,508.00
2023-04-30T00:20:45.800Z,510.00
2023-04-30T00:21:46.820Z,508.00
2023-04-30T00:22:46.813Z,505.00
2023-04-30T00:23:46.829Z,508.00
2023-04-30T00:24:46.875Z,511.00
2023-04-30T00:25:46.852Z,505.00
2023-04-30T00:26:45.857Z,506.00
2023-04-30T00:27:46.870Z,509.00
2023-04-30T00:28:46.908Z,503.00
2023-04-30T00:29:45.897Z,509.00
2023-04-30T00:30:46.902Z,508.00
2023-04-30T00:31:46.952Z,506.00
2023-04-30T00:32:46.905Z,511.00
2023-04-30T00:33:46.903Z,509.00
2023-04-30T00:34:46.977Z,510.00
2023-04-30T00:35:46.914Z,505.00
2023-04-30T00:36:45.926Z,507.00
2023-04-30T00:37:46.924Z,506.00
2023-04-30T00:38:46.926Z,511.00
2023-04-30T00:39:46.956Z,510.00
2023-04-30T00:40:46.993Z,510.00
2023-04-30T00:41:46.964Z,509.00
2023-04-30T00:42:46.962Z,510.00
2023-04-30T00:43:45.978Z,508.00
2023-04-30T00:44:45.981Z,508.00
2023-04-30T00:45:47.112Z,508.00
2023-04-30T00:46:46.024Z,513.00
2023-04-30T00:47:47.044Z,500.00
2023-04-30T00:48:47.025Z,508.00
2023-04-30T00:49:46.043Z,512.00
2023-04-30T00:50:47.020Z,507.00
2023-04-30T00:51:47.032Z,511.00
2023-04-30T00:52:46.045Z,508.00
2023-04-30T00:53:47.048Z,512.00
2023-04-30T00:54:47.071Z,507.00
2023-04-30T00:55:46.280Z,509.00
2023-04-30T00:56:46.091Z,505.00
2023-04-30T00:57:46.097Z,511.00
2023-04-30T00:58:46.109Z,509.00
2023-04-30T00:59:46.109Z,511.00
2023-04-30T01:00:47.249Z,510.00
2023-04-30T01:01:46.365Z,506.00
2023-04-30T01:02:46.196Z,513.00
2023-04-30T01:03:46.198Z,504.00
2023-04-30T01:04:46.143Z,510.00
2023-04-30T01:05:46.145Z,509.00
2023-04-30T01:06:47.164Z,510.00
2023-04-30T01:07:47.172Z,500.00
2023-04-30T01:08:46.851Z,504.00
2023-04-30T01:09:47.200Z,507.00
2023-04-30T01:10:47.792Z,509.00
2023-04-30T01:11:47.448Z,505.00
2023-04-30T01:12:46.235Z,504.00
2023-04-30T01:13:46.237Z,507.00
2023-04-30T01:14:47.255Z,510.00
2023-04-30T01:15:46.281Z,502.00
2023-04-30T01:16:47.558Z,505.00
2023-04-30T01:17:47.310Z,508.00
2023-04-30T01:18:46.352Z,507.00
2023-04-30T01:19:47.293Z,509.00
2023-04-30T01:20:47.292Z,510.00
2023-04-30T01:21:47.325Z,512.00
2023-04-30T01:22:47.321Z,505.00
2023-04-30T01:23:46.313Z,502.00
2023-04-30T01:24:47.338Z,506.00
2023-04-30T01:25:46.356Z,507.00
2023-04-30T01:26:46.349Z,506.00
2023-04-30T01:27:47.361Z,507.00
2023-04-30T01:28:47.382Z,504.00
2023-04-30T01:29:47.385Z,506.00
2023-04-30T01:30:46.429Z,510.00
2023-04-30T01:31:46.467Z,507.00
2023-04-30T01:32:47.460Z,507.00
2023-04-30T01:33:46.423Z,504.00
2023-04-30T01:34:46.442Z,506.00
2023-04-30T01:35:47.489Z,500.00
2023-04-30T01:36:47.481Z,509.00
2023-04-30T01:37:47.466Z,508.00
2023-04-30T01:38:47.496Z,510.00
2023-04-30T01:39:46.476Z,508.00
2023-04-30T01:40:47.519Z,502.00
2023-04-30T01:41:46.574Z,512.00
2023-04-30T01:42:46.524Z,511.00
2023-04-30T01:43:47.538Z,513.00
2023-04-30T01:44:47.554Z,513.00
2023-04-30T01:45:47.148Z,507.00
2023-04-30T01:46:47.591Z,511.00
2023-04-30T01:47:46.598Z,510.00
2023-04-30T01:48:46.623Z,507.00
2023-04-30T01:49:46.633Z,508.00
2023-04-30T01:50:46.661Z,505.00
2023-04-30T01:51:46.692Z,506.00
2023-04-30T01:52:47.694Z,505.00
2023-04-30T01:53:47.701Z,509.00
2023-04-30T01:54:46.724Z,511.00
2023-04-30T01:55:47.822Z,509.00
2023-04-30T01:56:46.762Z,511.00
2023-04-30T01:57:48.922Z,505.00
2023-04-30T01:58:47.790Z,508.00
2023-04-30T01:59:47.813Z,507.00
2023-04-30T02:00:47.983Z,502.00
2023-04-30T02:01:47.899Z,508.00
2023-04-30T02:02:48.217Z,502.00
2023-04-30T02:03:47.909Z,508.00
2023-04-30T02:04:46.860Z,505.00
2023-04-30T02:05:47.872Z,507.00
2023-04-30T02:06:47.972Z,512.00
2023-04-30T02:07:47.947Z,507.00
2023-04-30T02:08:46.909Z,508.00
2023-04-30T02:09:47.929Z,509.00
2023-04-30T02:10:46.940Z,512.00
2023-04-30T02:11:47.962Z,509.00
2023-04-30T02:12:46.963Z,507.00
2023-04-30T02:13:46.981Z,509.00
2023-04-30T02:14:47.996Z,509.00
2023-04-30T02:15:48.035Z,510.00
2023-04-30T02:16:48.079Z,505.00
2023-04-30T02:17:47.070Z,508.00
2023-04-30T02:18:48.039Z,508.00
2023-04-30T02:19:47.067Z,506.00
2023-04-30T02:20:48.096Z,508.00
2023-04-30T02:21:48.128Z,507.00
2023-04-30T02:22:47.108Z,505.00
2023-04-30T02:23:47.105Z,507.00
2023-04-30T02:24:48.123Z,507.00
2023-04-30T02:25:47.121Z,508.00
2023-04-30T02:26:47.137Z,507.00
2023-04-30T02:27:48.170Z,504.00
2023-04-30T02:28:48.162Z,508.00
2023-04-30T02:29:48.166Z,506.00
2023-04-30T02:30:47.215Z,506.00
2023-04-30T02:31:47.243Z,503.00
2023-04-30T02:32:48.299Z,506.00
2023-04-30T02:33:48.218Z,505.00
2023-04-30T02:34:48.229Z,508.00
2023-04-30T02:35:48.226Z,508.00
2023-04-30T02:36:47.242Z,506.00
2023-04-30T02:37:48.259Z,503.00
2023-04-30T02:38:48.297Z,509.00
2023-04-30T02:39:48.288Z,508.00
2023-04-30T02:40:48.297Z,503.00
2023-04-30T02:41:48.283Z,506.00
2023-04-30T02:42:48.315Z,505.00
2023-04-30T02:43:48.323Z,502.00
2023-04-30T02:44:48.330Z,502.00
2023-04-30T02:45:48.609Z,511.00
2023-04-30T02:46:47.362Z,510.00
2023-04-30T02:47:47.377Z,511.00
2023-04-30T02:48:47.395Z,505.00
2023-04-30T02:49:48.422Z,504.00
2023-04-30T02:50:48.439Z,502.00
2023-04-30T02:51:48.442Z,511.00
2023-04-30T02:52:48.451Z,514.00
2023-04-30T02:53:47.495Z,508.00
2023-04-30T02:54:48.499Z,511.00
2023-04-30T02:55:48.546Z,507.00
2023-04-30T02:56:48.162Z,508.00
2023-04-30T02:57:48.540Z,509.00
2023-04-30T02:58:47.568Z,513.00
2023-04-30T02:59:48.584Z,510.00
2023-04-30T03:00:47.589Z,510.00
2023-04-30T03:01:47.962Z,504.00
2023-04-30T03:02:47.673Z,509.00
2023-04-30T03:03:48.691Z,510.00
2023-04-30T03:04:48.675Z,511.00
2023-04-30T03:05:48.674Z,512.00
2023-04-30T03:06:48.711Z,506.00
2023-04-30T03:07:48.729Z,511.00
2023-04-30T03:08:48.741Z,510.00
2023-04-30T03:09:48.775Z,513.00
2023-04-30T03:10:48.812Z,511.00
2023-04-30T03:11:48.808Z,510.00
2023-04-30T03:12:47.828Z,509.00
2023-04-30T03:13:48.834Z,508.00
2023-04-30T03:14:48.900Z,509.00
2023-04-30T03:15:48.894Z,510.00
2023-04-30T03:16:48.963Z,510.00
2023-04-30T03:17:47.950Z,508.00
2023-04-30T03:18:47.938Z,509.00
2023-04-30T03:19:48.952Z,508.00
2023-04-30T03:20:49.000Z,510.00
2023-04-30T03:21:48.992Z,510.00
2023-04-30T03:22:49.056Z,509.00
2023-04-30T03:23:48.173Z,509.00
2023-04-30T03:24:49.066Z,511.00
2023-04-30T03:25:49.074Z,510.00
2023-04-30T03:26:49.118Z,511.00
2023-04-30T03:27:48.130Z,509.00
2023-04-30T03:28:49.152Z,510.00
2023-04-30T03:29:48.168Z,506.00
2023-04-30T03:30:49.199Z,506.00
2023-04-30T03:31:48.293Z,511.00
2023-04-30T03:32:49.292Z,510.00
2023-04-30T03:33:49.249Z,511.00
2023-04-30T03:34:48.274Z,505.00
2023-04-30T03:35:49.294Z,509.00
2023-04-30T03:36:48.296Z,510.00
2023-04-30T03:37:48.316Z,509.00
2023-04-30T03:38:48.348Z,512.00
2023-04-30T03:39:48.375Z,505.00
2023-04-30T03:40:48.397Z,508.00
2023-04-30T03:41:48.427Z,505.00
2023-04-30T03:42:51.360Z,508.00
2023-04-30T03:43:49.425Z,513.00
2023-04-30T03:44:49.407Z,515.00
2023-04-30T03:45:49.462Z,511.00
2023-04-30T03:46:49.390Z,514.00
2023-04-30T03:47:49.509Z,518.00
2023-04-30T03:48:49.384Z,515.00
2023-04-30T03:49:48.368Z,513.00
2023-04-30T03:50:49.375Z,515.00
2023-04-30T03:51:49.527Z,510.00
2023-04-30T03:52:49.361Z,510.00
2023-04-30T03:53:49.847Z,510.00
2023-04-30T03:54:49.374Z,517.00
2023-04-30T03:55:49.348Z,515.00
2023-04-30T03:56:49.333Z,512.00
2023-04-30T03:57:49.346Z,510.00
2023-04-30T03:58:49.969Z,508.00
2023-04-30T03:59:49.338Z,506.00
2023-04-30T04:00:49.300Z,510.00
2023-04-30T04:01:49.352Z,513.00
2023-04-30T04:02:48.506Z,514.00
2023-04-30T04:03:48.299Z,509.00
2023-04-30T04:04:49.281Z,512.00
2023-04-30T04:05:49.269Z,508.00
2023-04-30T04:06:48.326Z,505.00
2023-04-30T04:07:48.282Z,509.00
2023-04-30T04:08:49.257Z,511.00
2023-04-30T04:09:49.249Z,510.00
2023-04-30T04:10:49.248Z,506.00
2023-04-30T04:11:48.287Z,510.00
2023-04-30T04:12:48.252Z,508.00
2023-04-30T04:13:49.228Z,506.00
2023-04-30T04:14:48.250Z,507.00
2023-04-30T04:15:49.270Z,510.00
2023-04-30T04:16:49.207Z,506.00
2023-04-30T04:17:49.260Z,507.00
2023-04-30T04:18:48.185Z,504.00
2023-04-30T04:19:48.592Z,504.00
2023-04-30T04:20:49.198Z,507.00
2023-04-30T04:21:48.190Z,509.00
2023-04-30T04:22:48.169Z,508.00
2023-04-30T04:23:48.174Z,505.00
2023-04-30T04:24:49.149Z,504.00
2023-04-30T04:25:49.135Z,504.00
2023-04-30T04:26:49.145Z,506.00
2023-04-30T04:27:49.126Z,509.00
2023-04-30T04:28:48.141Z,511.00
2023-04-30T04:29:49.127Z,506.00
2023-04-30T04:30:49.164Z,508.00
2023-04-30T04:31:49.278Z,505.00
2023-04-30T04:32:49.234Z,505.00
2023-04-30T04:33:49.310Z,506.00
2023-04-30T04:34:49.200Z,503.00
2023-04-30T04:35:48.245Z,509.00
2023-04-30T04:36:49.258Z,506.00
2023-04-30T04:37:49.283Z,503.00
2023-04-30T04:38:48.298Z,507.00
2023-04-30T04:39:49.310Z,509.00
2023-04-30T04:40:49.334Z,507.00
2023-04-30T04:41:49.361Z,504.00
2023-04-30T04:42:49.619Z,504.00
2023-04-30T04:43:48.388Z,505.00
2023-04-30T04:44:48.428Z,503.00
2023-04-30T04:45:50.251Z,503.00
2023-04-30T04:46:48.612Z,504.00
2023-04-30T04:47:48.542Z,509.00
2023-04-30T04:48:49.509Z,508.00
2023-04-30T04:49:48.634Z,506.00
2023-04-30T04:50:49.544Z,504.00
2023-04-30T04:51:49.574Z,504.00
2023-04-30T04:52:49.603Z,506.00
2023-04-30T04:53:49.902Z,506.00
2023-04-30T04:54:48.642Z,506.00
2023-04-30T04:55:49.657Z,506.00
2023-04-30T04:56:49.682Z,505.00
2023-04-30T04:57:49.705Z,507.00
2023-04-30T04:58:49.752Z,509.00
2023-04-30T04:59:49.758Z,510.00
2023-04-30T05:00:49.760Z,505.00
2023-04-30T05:01:49.858Z,505.00
2023-04-30T05:02:49.925Z,505.00
2023-04-30T05:03:49.945Z,503.00
2023-04-30T05:04:49.859Z,508.00
2023-04-30T05:05:48.877Z,509.00
2023-04-30T05:06:48.924Z,503.00
2023-04-30T05:07:49.906Z,505.00
2023-04-30T05:08:49.928Z,505.00
2023-04-30T05:09:49.957Z,510.00
2023-04-30T05:10:48.989Z,505.00
2023-04-30T05:11:49.031Z,509.00
2023-04-30T05:12:50.031Z,507.00
2023-04-30T05:13:50.076Z,508.00
2023-04-30T05:14:50.068Z,508.00
2023-04-30T05:15:50.113Z,512.00
2023-04-30T05:16:49.138Z,505.00
2023-04-30T05:17:50.182Z,508.00
2023-04-30T05:18:50.521Z,510.00
2023-04-30T05:19:50.207Z,506.00
2023-04-30T05:20:50.220Z,507.00
2023-04-30T05:21:50.241Z,504.00
2023-04-30T05:22:50.266Z,507.00
2023-04-30T05:23:50.306Z,508.00
2023-04-30T05:24:50.333Z,507.00
2023-04-30T05:25:50.392Z,509.00
2023-04-30T05:26:50.354Z,509.00
2023-04-30T05:27:50.374Z,508.00
2023-04-30T05:28:50.424Z,507.00
2023-04-30T05:29:49.437Z,504.00
2023-04-30T05:30:49.477Z,507.00
2023-04-30T05:31:50.502Z,511.00
2023-04-30T05:32:49.584Z,509.00
2023-04-30T05:33:49.538Z,507.00
2023-04-30T05:34:49.579Z,505.00
2023-04-30T05:35:49.632Z,507.00
2023-04-30T05:36:49.614Z,507.00
2023-04-30T05:37:50.659Z,509.00
2023-04-30T05:38:50.675Z,508.00
2023-04-30T05:39:49.712Z,504.00
2023-04-30T05:40:50.710Z,507.00
2023-04-30T05:41:52.819Z,507.00
2023-04-30T05:42:49.732Z,518.00
2023-04-30T05:43:50.712Z,512.00
2023-04-30T05:44:50.729Z,511.00
2023-04-30T05:45:50.753Z,515.00
2023-04-30T05:46:49.687Z,511.00
2023-04-30T05:47:49.710Z,508.00
2023-04-30T05:48:49.684Z,511.00
2023-04-30T05:49:49.680Z,509.00
2023-04-30T05:50:50.691Z,513.00
2023-04-30T05:51:50.667Z,509.00
2023-04-30T05:52:50.649Z,513.00
2023-04-30T05:53:50.644Z,509.00
2023-04-30T05:54:50.663Z,514.00
2023-04-30T05:55:49.633Z,511.00
2023-04-30T05:56:49.629Z,512.00
2023-04-30T05:57:50.629Z,508.00
2023-04-30T05:58:50.634Z,511.00
2023-04-30T05:59:50.615Z,509.00
2023-04-30T06:00:49.605Z,508.00
2023-04-30T06:01:50.624Z,506.00
2023-04-30T06:02:50.623Z,505.00
2023-04-30T06:03:50.580Z,504.00
2023-04-30T06:04:50.625Z,507.00
2023-04-30T06:05:50.632Z,511.00
2023-04-30T06:06:49.640Z,507.00
2023-04-30T06:07:49.560Z,510.00
2023-04-30T06:08:50.545Z,507.00
2023-04-30T06:09:50.561Z,511.00
2023-04-30T06:10:50.535Z,506.00
2023-04-30T06:11:49.546Z,509.00
2023-04-30T06:12:50.523Z,511.00
2023-04-30T06:13:49.534Z,508.00
2023-04-30T06:14:50.521Z,507.00
2023-04-30T06:15:50.489Z,506.00
2023-04-30T06:16:50.551Z,510.00
2023-04-30T06:17:49.501Z,507.00
2023-04-30T06:18:52.947Z,505.00
2023-04-30T06:19:49.471Z,505.00
2023-04-30T06:20:49.488Z,506.00
2023-04-30T06:21:49.469Z,506.00
2023-04-30T06:22:50.501Z,509.00
2023-04-30T06:23:49.453Z,512.00
2023-04-30T06:24:50.449Z,512.00
2023-04-30T06:25:50.445Z,505.00
2023-04-30T06:26:49.440Z,510.00
2023-04-30T06:27:49.420Z,510.00
2023-04-30T06:28:50.419Z,510.00
2023-04-30T06:29:50.426Z,506.00
2023-04-30T06:30:50.403Z,505.00
2023-04-30T06:31:50.447Z,509.00
2023-04-30T06:32:49.399Z,509.00
2023-04-30T06:33:50.377Z,502.00
2023-04-30T06:34:49.377Z,507.00
2023-04-30T06:35:50.383Z,507.00
2023-04-30T06:36:49.378Z,506.00
2023-04-30T06:37:50.355Z,511.00
2023-04-30T06:38:50.392Z,505.00
2023-04-30T06:39:50.376Z,508.00
2023-04-30T06:40:50.347Z,509.00
2023-04-30T06:41:50.334Z,510.00
2023-04-30T06:42:50.332Z,505.00
2023-04-30T06:43:49.325Z,504.00
2023-04-30T06:44:50.340Z,506.00
2023-04-30T06:45:49.375Z,507.00
2023-04-30T06:46:50.312Z,505.00
2023-04-30T06:47:49.325Z,504.00
2023-04-30T06:48:50.286Z,500.00
2023-04-30T06:49:50.305Z,507.00
2023-04-30T06:50:50.303Z,509.00
2023-04-30T06:51:50.349Z,509.00
2023-04-30T06:52:49.276Z,515.00
2023-04-30T06:53:50.272Z,508.00
2023-04-30T06:54:50.298Z,509.00
2023-04-30T06:55:49.260Z,512.00
2023-04-30T06:56:50.257Z,512.00
2023-04-30T06:57:50.247Z,504.00
2023-04-30T06:58:49.233Z,512.00
2023-04-30T06:59:50.253Z,505.00
2023-04-30T07:00:50.233Z,511.00
2023-04-30T07:01:50.270Z,506.00
2023-04-30T07:02:49.239Z,509.00
2023-04-30T07:03:49.425Z,507.00
2023-04-30T07:04:49.204Z,506.00
2023-04-30T07:05:50.212Z,510.00
2023-04-30T07:06:50.248Z,503.00
2023-04-30T07:07:49.305Z,513.00
2023-04-30T07:08:50.310Z,511.00
2023-04-30T07:09:51.011Z,510.00
2023-04-30T07:10:50.373Z,509.00
2023-04-30T07:11:50.373Z,504.00
2023-04-30T07:12:50.442Z,508.00
2023-04-30T07:13:50.455Z,510.00
2023-04-30T07:14:49.466Z,512.00
2023-04-30T07:15:50.516Z,512.00
2023-04-30T07:16:49.508Z,513.00
2023-04-30T07:17:49.595Z,510.00
2023-04-30T07:18:50.570Z,511.00
2023-04-30T07:19:50.626Z,512.00
2023-04-30T07:20:50.611Z,507.00
2023-04-30T07:21:50.621Z,505.00
2023-04-30T07:22:50.641Z,507.00
2023-04-30T07:23:50.682Z,506.00
2023-04-30T07:24:49.708Z,510.00
2023-04-30T07:25:50.742Z,505.00
2023-04-30T07:26:50.784Z,509.00
2023-04-30T07:27:50.773Z,506.00
2023-04-30T07:28:50.804Z,507.00
2023-04-30T07:29:51.266Z,506.00
2023-04-30T07:30:49.831Z,505.00
2023-04-30T07:31:50.929Z,504.00
2023-04-30T07:32:49.912Z,508.00
2023-04-30T07:33:50.914Z,507.00
2023-04-30T07:34:50.933Z,507.00
2023-04-30T07:35:49.976Z,503.00
2023-04-30T07:36:51.002Z,507.00
2023-04-30T07:37:51.034Z,506.00
2023-04-30T07:38:51.045Z,509.00
2023-04-30T07:39:50.058Z,506.00
2023-04-30T07:40:51.078Z,510.00
2023-04-30T07:41:51.115Z,506.00
2023-04-30T07:42:50.162Z,506.00
2023-04-30T07:43:51.151Z,502.00
2023-04-30T07:44:51.174Z,506.00
2023-04-30T07:45:51.249Z,503.00
2023-04-30T07:46:51.221Z,509.00
2023-04-30T07:47:51.289Z,508.00
2023-04-30T07:48:51.280Z,505.00
2023-04-30T07:49:51.296Z,506.00
2023-04-30T07:50:52.146Z,500.00
2023-04-30T07:51:50.430Z,504.00
2023-04-30T07:52:51.469Z,506.00
2023-04-30T07:53:50.473Z,507.00
2023-04-30T07:54:50.513Z,508.00
2023-04-30T07:55:50.536Z,511.00
2023-04-30T07:56:51.553Z,509.00
2023-04-30T07:57:50.565Z,504.00
2023-04-30T07:58:50.830Z,506.00
2023-04-30T07:59:53.120Z,505.00
2023-04-30T08:00:51.786Z,505.00
2023-04-30T08:01:51.855Z,507.00
2023-04-30T08:02:51.927Z,501.00
2023-04-30T08:03:51.898Z,505.00
2023-04-30T08:04:51.854Z,505.00
2023-04-30T08:05:51.917Z,505.00
2023-04-30T08:06:51.010Z,508.00
2023-04-30T08:07:51.957Z,507.00
2023-04-30T08:08:51.916Z,508.00
2023-04-30T08:09:50.935Z,506.00
2023-04-30T08:10:50.942Z,506.00
2023-04-30T08:11:50.972Z,508.00
2023-04-30T08:12:51.992Z,510.00
2023-04-30T08:13:52.015Z,507.00
2023-04-30T08:14:52.149Z,512.00
2023-04-30T08:15:51.055Z,510.00
2023-04-30T08:16:52.100Z,514.00
2023-04-30T08:17:51.196Z,509.00
2023-04-30T08:18:52.106Z,511.00
2023-04-30T08:19:52.676Z,506.00
2023-04-30T08:20:52.148Z,507.00
2023-04-30T08:21:51.139Z,510.00
2023-04-30T08:22:51.157Z,513.00
2023-04-30T08:23:51.169Z,512.00
2023-04-30T08:24:51.209Z,514.00
2023-04-30T08:25:52.267Z,509.00
2023-04-30T08:26:53.624Z,510.00
2023-04-30T08:27:51.212Z,519.00
2023-04-30T08:28:51.205Z,514.00
2023-04-30T08:29:51.216Z,519.00
2023-04-30T08:30:52.339Z,514.00
2023-04-30T08:31:51.236Z,508.00
2023-04-30T08:32:52.255Z,514.00
2023-04-30T08:33:52.174Z,515.00
2023-04-30T08:34:52.331Z,514.00
2023-04-30T08:35:52.178Z,515.00
2023-04-30T08:36:51.178Z,514.00
2023-04-30T08:37:51.157Z,514.00
2023-04-30T08:38:51.153Z,515.00
2023-04-30T08:39:51.142Z,511.00
2023-04-30T08:40:52.242Z,516.00
2023-04-30T08:41:52.145Z,513.00
2023-04-30T08:42:51.140Z,512.00
2023-04-30T08:43:51.118Z,507.00
2023-04-30T08:44:51.123Z,511.00
2023-04-30T08:45:51.140Z,511.00
2023-04-30T08:46:52.119Z,513.00
2023-04-30T08:47:51.107Z,516.00
2023-04-30T08:48:52.090Z,509.00
2023-04-30T08:49:51.087Z,512.00
2023-04-30T08:50:52.067Z,510.00
2023-04-30T08:51:51.082Z,512.00
2023-04-30T08:52:52.058Z,515.00
2023-04-30T08:53:52.031Z,511.00
2023-04-30T08:54:52.032Z,506.00
2023-04-30T08:55:52.034Z,513.00
2023-04-30T08:56:52.031Z,510.00
2023-04-30T08:57:52.028Z,512.00
2023-04-30T08:58:52.004Z,514.00
2023-04-30T08:59:51.002Z,511.00
2023-04-30T09:00:50.989Z,509.00
2023-04-30T09:01:53.883Z,515.00
2023-04-30T09:02:51.064Z,519.00
2023-04-30T09:03:52.115Z,515.00
2023-04-30T09:04:51.961Z,522.00
2023-04-30T09:05:50.963Z,509.00
2023-04-30T09:06:50.981Z,509.00
2023-04-30T09:08:02.530Z,512.00
2023-04-30T09:08:51.946Z,513.00
2023-04-30T09:09:52.125Z,514.00
2023-04-30T09:10:51.942Z,516.00
2023-04-30T09:11:51.918Z,514.00
2023-04-30T09:12:51.912Z,518.00
2023-04-30T09:13:51.906Z,516.00
2023-04-30T09:14:51.910Z,515.00
2023-04-30T09:15:51.945Z,510.00
2023-04-30T09:16:51.879Z,514.00
2023-04-30T09:17:51.917Z,511.00
2023-04-30T09:18:51.885Z,517.00
2023-04-30T09:19:51.928Z,514.00
2023-04-30T09:20:51.848Z,516.00
2023-04-30T09:21:51.849Z,510.00
2023-04-30T09:22:51.820Z,516.00
2023-04-30T09:23:51.818Z,510.00
2023-04-30T09:24:51.831Z,514.00
2023-04-30T09:25:51.806Z,512.00
2023-04-30T09:26:51.814Z,514.00
2023-04-30T09:27:51.787Z,511.00
2023-04-30T09:28:50.785Z,510.00
2023-04-30T09:29:50.793Z,518.00
2023-04-30T09:30:51.761Z,512.00
2023-04-30T09:31:51.826Z,515.00
2023-04-30T09:32:50.804Z,516.00
2023-04-30T09:33:50.753Z,514.00
2023-04-30T09:34:50.764Z,521.00
2023-04-30T09:35:51.726Z,512.00
2023-04-30T09:36:50.719Z,515.00
2023-04-30T09:37:50.712Z,516.00
2023-04-30T09:38:50.698Z,523.00
2023-04-30T09:39:50.709Z,516.00
2023-04-30T09:40:50.696Z,515.00
2023-04-30T09:41:50.681Z,513.00
2023-04-30T09:42:51.676Z,517.00
2023-04-30T09:43:51.697Z,517.00
2023-04-30T09:44:51.698Z,523.00
2023-04-30T09:45:51.666Z,521.00
2023-04-30T09:46:51.749Z,518.00
2023-04-30T09:47:50.670Z,521.00
2023-04-30T09:48:50.840Z,514.00
2023-04-30T09:49:51.821Z,521.00
2023-04-30T09:50:51.661Z,513.00
2023-04-30T09:51:50.608Z,520.00
2023-04-30T09:52:50.604Z,521.00
2023-04-30T09:53:51.616Z,515.00
2023-04-30T09:54:51.614Z,519.00
2023-04-30T09:55:51.586Z,518.00
2023-04-30T09:56:50.586Z,521.00
2023-04-30T09:57:50.585Z,520.00
2023-04-30T09:58:50.563Z,519.00
2023-04-30T09:59:50.553Z,522.00
2023-04-30T10:00:51.572Z,520.00
2023-04-30T10:01:50.541Z,520.00
2023-04-30T10:02:51.587Z,520.00
2023-04-30T10:03:51.569Z,525.00
2023-04-30T10:04:51.499Z,516.00
2023-04-30T10:05:51.492Z,525.00
2023-04-30T10:06:51.629Z,519.00
2023-04-30T10:07:50.504Z,519.00
2023-04-30T10:08:50.485Z,524.00
2023-04-30T10:09:51.473Z,515.00
2023-04-30T10:10:51.464Z,519.00
2023-04-30T10:11:51.456Z,521.00
2023-04-30T10:12:51.450Z,520.00
2023-04-30T10:13:50.445Z,522.00
2023-04-30T10:14:50.440Z,524.00
2023-04-30T10:15:50.435Z,523.00
2023-04-30T10:16:51.480Z,519.00
2023-04-30T10:17:51.456Z,519.00
2023-04-30T10:18:50.414Z,520.00
2023-04-30T10:19:50.406Z,521.00
2023-04-30T10:20:51.385Z,517.00
2023-04-30T10:21:51.392Z,519.00
2023-04-30T10:22:51.411Z,522.00
2023-04-30T10:23:50.377Z,517.00
2023-04-30T10:24:51.351Z,517.00
2023-04-30T10:25:51.362Z,515.00
2023-04-30T10:26:51.353Z,521.00
2023-04-30T10:27:50.349Z,520.00
2023-04-30T10:28:50.326Z,520.00
2023-04-30T10:29:50.320Z,522.00
2023-04-30T10:30:51.314Z,524.00
2023-04-30T10:31:51.346Z,517.00
2023-04-30T10:32:50.341Z,519.00
2023-04-30T10:33:51.294Z,518.00
2023-04-30T10:34:51.285Z,519.00
2023-04-30T10:35:50.284Z,520.00
2023-04-30T10:36:51.292Z,520.00
2023-04-30T10:37:50.254Z,518.00
2023-04-30T10:38:51.362Z,519.00
2023-04-30T10:39:51.280Z,520.00
2023-04-30T10:40:51.247Z,520.00
2023-04-30T10:41:50.288Z,519.00
2023-04-30T10:42:51.227Z,522.00
2023-04-30T10:43:50.223Z,518.00
2023-04-30T10:44:51.223Z,515.00
2023-04-30T10:45:51.278Z,517.00
2023-04-30T10:46:51.229Z,514.00
2023-04-30T10:47:51.245Z,515.00
2023-04-30T10:48:51.187Z,521.00
2023-04-30T10:49:50.191Z,523.00
2023-04-30T10:50:51.168Z,524.00
2023-04-30T10:51:51.184Z,518.00
2023-04-30T10:52:50.164Z,520.00
2023-04-30T10:53:51.167Z,518.00
2023-04-30T10:54:50.170Z,516.00
2023-04-30T10:55:50.157Z,518.00
2023-04-30T10:56:51.137Z,522.00
2023-04-30T10:57:51.133Z,522.00
2023-04-30T10:58:50.120Z,515.00
2023-04-30T10:59:50.132Z,512.00
2023-04-30T11:00:51.117Z,520.00
2023-04-30T11:01:50.181Z,516.00
2023-04-30T11:02:51.182Z,520.00
2023-04-30T11:03:51.083Z,515.00
2023-04-30T11:04:51.260Z,516.00
2023-04-30T11:05:50.078Z,512.00
2023-04-30T11:06:50.732Z,521.00
2023-04-30T11:07:51.082Z,517.00
2023-04-30T11:08:51.050Z,513.00
2023-04-30T11:09:50.037Z,515.00
2023-04-30T11:10:51.060Z,518.00
2023-04-30T11:11:50.029Z,513.00
2023-04-30T11:12:51.033Z,516.00
2023-04-30T11:13:50.018Z,521.00
2023-04-30T11:14:51.011Z,517.00
2023-04-30T11:15:50.067Z,512.00
2023-04-30T11:16:51.005Z,519.00
2023-04-30T11:17:51.045Z,517.00
2023-04-30T11:18:50.991Z,515.00
2023-04-30T11:19:50.991Z,518.00
2023-04-30T11:20:49.989Z,519.00
2023-04-30T11:21:50.994Z,523.00
2023-04-30T11:22:51.008Z,516.00
2023-04-30T11:23:51.013Z,516.00
2023-04-30T11:24:51.003Z,519.00
2023-04-30T11:25:51.024Z,521.00
2023-04-30T11:26:51.056Z,522.00
2023-04-30T11:27:50.037Z,520.00
2023-04-30T11:28:51.108Z,518.00
2023-04-30T11:29:51.058Z,520.00
2023-04-30T11:30:51.082Z,519.00
2023-04-30T11:31:50.103Z,517.00
2023-04-30T11:32:51.125Z,520.00
2023-04-30T11:33:50.078Z,514.00
2023-04-30T11:34:51.089Z,516.00
2023-04-30T11:35:51.097Z,521.00
2023-04-30T11:36:50.082Z,519.00
2023-04-30T11:37:51.077Z,519.00
2023-04-30T11:38:51.081Z,514.00
2023-04-30T11:39:50.088Z,523.00
2023-04-30T11:40:50.109Z,520.00
2023-04-30T11:41:50.124Z,520.00
2023-04-30T11:42:50.122Z,517.00
2023-04-30T11:43:50.096Z,519.00
2023-04-30T11:44:50.112Z,516.00
2023-04-30T11:45:50.101Z,516.00
2023-04-30T11:46:51.190Z,521.00
2023-04-30T11:47:51.144Z,525.00
2023-04-30T11:48:51.103Z,519.00
2023-04-30T11:49:51.114Z,522.00
2023-04-30T11:50:51.115Z,525.00
2023-04-30T11:51:50.136Z,519.00
2023-04-30T11:52:50.203Z,521.00
2023-04-30T11:53:51.154Z,525.00
2023-04-30T11:54:51.337Z,519.00
2023-04-30T11:55:51.138Z,526.00
2023-04-30T11:56:51.152Z,519.00
2023-04-30T11:57:51.173Z,521.00
2023-04-30T11:58:51.218Z,520.00
2023-04-30T11:59:51.184Z,518.00
2023-04-30T12:00:51.170Z,525.00
2023-04-30T12:01:51.213Z,519.00
2023-04-30T12:02:51.449Z,523.00
2023-04-30T12:03:51.370Z,522.00
2023-04-30T12:04:51.200Z,517.00
2023-04-30T12:05:50.190Z,519.00
2023-04-30T12:06:51.237Z,517.00
2023-04-30T12:07:50.235Z,523.00
2023-04-30T12:08:51.228Z,520.00
2023-04-30T12:09:51.274Z,519.00
2023-04-30T12:10:51.299Z,517.00
2023-04-30T12:11:50.338Z,519.00
2023-04-30T12:12:52.936Z,514.00
2023-04-30T12:13:50.347Z,519.00
2023-04-30T12:14:51.356Z,524.00
2023-04-30T12:15:50.329Z,526.00
2023-04-30T12:16:50.402Z,524.00
2023-04-30T12:17:50.401Z,525.00
2023-04-30T12:18:52.509Z,521.00
2023-04-30T12:19:51.459Z,525.00
2023-04-30T12:20:51.451Z,526.00
2023-04-30T12:21:51.465Z,513.00
2023-04-30T12:22:51.499Z,516.00
2023-04-30T12:23:51.503Z,522.00
2023-04-30T12:24:50.530Z,518.00
2023-04-30T12:25:50.534Z,519.00
2023-04-30T12:26:50.560Z,520.00
2023-04-30T12:27:51.574Z,520.00
2023-04-30T12:28:50.630Z,519.00